createdAt,value
2018-03-30T00:00:06.954Z,15.7
2018-03-30T00:00:19.123Z,15.7
2018-03-30T00:00:31.277Z,16.31
2018-03-30T00:00:43.521Z,16.31
2018-03-30T00:00:55.981Z,16.31
2018-03-30T00:01:08.134Z,16.31
2018-03-30T00:01:20.284Z,16.31
2018-03-30T00:01:32.433Z,16.31
2018-03-30T00:01:44.597Z,16.31
2018-03-30T00:01:56.753Z,16.31
2018-03-30T00:02:08.917Z,16.31
2018-03-30T00:02:21.056Z,16.31
2018-03-30T00:02:33.194Z,16.15
2018-03-30T00:02:45.358Z,16.15
2018-03-30T00:02:57.496Z,16.15
2018-03-30T00:03:09.649Z,16.15
2018-03-30T00:03:21.812Z,16.15
2018-03-30T00:03:33.989Z,16.15
2018-03-30T00:03:46.130Z,16.15
2018-03-30T00:03:58.279Z,16.15
2018-03-30T00:04:10.435Z,16.15
2018-03-30T00:04:22.614Z,16.48
2018-03-30T00:04:34.832Z,16.48
2018-03-30T00:04:47.359Z,16.48
2018-03-30T00:04:59.637Z,16.48
2018-03-30T00:05:11.835Z,16.48
2018-03-30T00:05:23.983Z,16.48
2018-03-30T00:05:36.145Z,16.48
2018-03-30T00:05:48.321Z,16.48
2018-03-30T00:06:00.491Z,16.48
2018-03-30T00:06:12.681Z,16.48
2018-03-30T00:06:24.851Z,14.03
2018-03-30T00:06:37.008Z,14.03
2018-03-30T00:06:49.151Z,14.03
2018-03-30T00:07:01.314Z,14.03
2018-03-30T00:07:13.509Z,14.03
2018-03-30T00:07:25.662Z,14.03
2018-03-30T00:07:37.816Z,14.03
2018-03-30T00:07:49.977Z,14.03
2018-03-30T00:08:02.127Z,14.03
2018-03-30T00:08:14.272Z,14.03
2018-03-30T00:08:26.446Z,13.38
2018-03-30T00:08:38.614Z,13.38
2018-03-30T00:08:50.767Z,13.38
2018-03-30T00:09:02.906Z,13.38
2018-03-30T00:09:15.051Z,13.38
2018-03-30T00:09:27.232Z,13.38
2018-03-30T00:09:39.658Z,13.38
2018-03-30T00:09:51.800Z,13.38
2018-03-30T00:10:03.960Z,13.38
2018-03-30T00:10:16.121Z,13.38
2018-03-30T00:10:28.250Z,14.53
2018-03-30T00:10:40.409Z,14.53
2018-03-30T00:10:52.562Z,14.53
2018-03-30T00:11:04.713Z,14.53
2018-03-30T00:11:16.912Z,14.53
2018-03-30T00:11:29.081Z,14.53
2018-03-30T00:11:41.232Z,14.53
2018-03-30T00:11:53.397Z,14.53
2018-03-30T00:12:05.606Z,14.53
2018-03-30T00:12:17.769Z,14.53
2018-03-30T00:12:29.914Z,14.21
2018-03-30T00:12:42.232Z,14.21
2018-03-30T00:12:54.515Z,14.21
2018-03-30T00:13:06.682Z,14.21
2018-03-30T00:13:18.824Z,14.21
2018-03-30T00:13:30.968Z,14.21
2018-03-30T00:13:43.138Z,14.21
2018-03-30T00:13:55.324Z,14.21
2018-03-30T00:14:07.475Z,14.21
2018-03-30T00:14:19.630Z,14.21
2018-03-30T00:14:31.778Z,13.9
2018-03-30T00:14:43.955Z,13.9
2018-03-30T00:14:56.160Z,13.9
2018-03-30T00:15:08.295Z,13.9
2018-03-30T00:15:20.491Z,13.9
2018-03-30T00:15:32.673Z,13.9
2018-03-30T00:15:44.796Z,13.9
2018-03-30T00:15:57.001Z,13.9
2018-03-30T00:16:09.180Z,13.9
2018-03-30T00:16:21.337Z,13.9
2018-03-30T00:16:33.491Z,14.71
2018-03-30T00:16:45.664Z,14.71
2018-03-30T00:16:57.858Z,14.71
2018-03-30T00:17:10.026Z,14.71
2018-03-30T00:17:22.214Z,14.71
2018-03-30T00:17:34.385Z,14.71
2018-03-30T00:17:46.535Z,14.71
2018-03-30T00:17:58.668Z,14.71
2018-03-30T00:18:10.880Z,14.71
2018-03-30T00:18:23.056Z,14.71
2018-03-30T00:18:35.207Z,17.43
2018-03-30T00:18:47.360Z,17.43
2018-03-30T00:18:59.523Z,17.43
2018-03-30T00:19:11.695Z,17.43
2018-03-30T00:19:23.836Z,17.43
2018-03-30T00:19:36.003Z,17.43
2018-03-30T00:19:48.151Z,17.43
2018-03-30T00:20:00.302Z,17.43
2018-03-30T00:20:12.445Z,17.43
2018-03-30T00:20:24.582Z,17.4
2018-03-30T00:20:36.711Z,17.4
2018-03-30T00:20:48.926Z,17.4
2018-03-30T00:21:01.080Z,17.4
2018-03-30T00:21:13.238Z,17.4
2018-03-30T00:21:25.418Z,17.4
2018-03-30T00:21:37.569Z,17.4
2018-03-30T00:21:49.736Z,17.4
2018-03-30T00:22:01.943Z,17.4
2018-03-30T00:22:14.120Z,17.4
2018-03-30T00:22:26.285Z,17.66
2018-03-30T00:22:38.488Z,17.66
2018-03-30T00:22:50.629Z,17.66
2018-03-30T00:23:02.789Z,17.66
2018-03-30T00:23:14.944Z,17.66
2018-03-30T00:23:27.155Z,17.66
2018-03-30T00:23:39.339Z,17.66
2018-03-30T00:23:51.500Z,17.66
2018-03-30T00:24:03.669Z,17.66
2018-03-30T00:24:15.847Z,17.66
2018-03-30T00:24:28.022Z,16.82
2018-03-30T00:24:40.166Z,16.82
2018-03-30T00:24:52.309Z,16.82
2018-03-30T00:25:04.458Z,16.82
2018-03-30T00:25:16.644Z,16.82
2018-03-30T00:25:28.777Z,16.82
2018-03-30T00:25:40.943Z,16.82
2018-03-30T00:25:53.106Z,16.82
2018-03-30T00:26:05.263Z,16.82
2018-03-30T00:26:17.428Z,16.82
2018-03-30T00:26:29.668Z,17.67
2018-03-30T00:26:42.014Z,17.67
2018-03-30T00:26:54.170Z,17.67
2018-03-30T00:27:06.393Z,17.67
2018-03-30T00:27:18.555Z,17.67
2018-03-30T00:27:30.729Z,17.67
2018-03-30T00:27:42.875Z,17.67
2018-03-30T00:27:55.021Z,17.67
2018-03-30T00:28:07.200Z,17.67
2018-03-30T00:28:19.352Z,17.67
2018-03-30T00:28:31.503Z,16.39
2018-03-30T00:28:43.660Z,16.39
2018-03-30T00:28:55.817Z,16.39
2018-03-30T00:29:07.974Z,16.39
2018-03-30T00:29:20.121Z,16.39
2018-03-30T00:29:32.288Z,16.39
2018-03-30T00:29:44.438Z,16.39
2018-03-30T00:29:56.625Z,16.39
2018-03-30T00:30:08.800Z,16.39
2018-03-30T00:30:20.960Z,16.39
2018-03-30T00:30:33.111Z,15.05
2018-03-30T00:30:45.266Z,15.05
2018-03-30T00:30:57.432Z,15.05
2018-03-30T00:31:09.584Z,15.05
2018-03-30T00:31:21.720Z,15.05
2018-03-30T00:31:33.885Z,15.05
2018-03-30T00:31:46.072Z,15.05
2018-03-30T00:31:58.229Z,15.05
2018-03-30T00:32:10.436Z,15.05
2018-03-30T00:32:22.603Z,15.05
2018-03-30T00:32:34.778Z,15.35
2018-03-30T00:32:46.934Z,15.35
2018-03-30T00:32:59.089Z,15.35
2018-03-30T00:33:11.251Z,15.35
2018-03-30T00:33:23.499Z,15.35
2018-03-30T00:33:35.822Z,15.35
2018-03-30T00:33:47.963Z,15.35
2018-03-30T00:34:00.114Z,15.35
2018-03-30T00:34:12.311Z,15.35
2018-03-30T00:34:24.487Z,15.35
2018-03-30T00:34:36.744Z,14.69
2018-03-30T00:34:48.877Z,14.69
2018-03-30T00:35:01.073Z,14.69
2018-03-30T00:35:13.235Z,14.69
2018-03-30T00:35:25.396Z,14.69
2018-03-30T00:35:37.558Z,14.69
2018-03-30T00:35:49.776Z,14.69
2018-03-30T00:36:01.956Z,14.69
2018-03-30T00:36:14.132Z,14.69
2018-03-30T00:36:26.287Z,14.69
2018-03-30T00:36:38.487Z,14.79
2018-03-30T00:36:50.646Z,14.79
2018-03-30T00:37:02.837Z,14.79
2018-03-30T00:37:15.005Z,14.79
2018-03-30T00:37:27.172Z,14.79
2018-03-30T00:37:39.372Z,14.79
2018-03-30T00:37:51.537Z,14.79
2018-03-30T00:38:03.682Z,14.79
2018-03-30T00:38:15.850Z,14.79
2018-03-30T00:38:28.037Z,14.95
2018-03-30T00:38:40.188Z,14.95
2018-03-30T00:38:52.381Z,14.95
2018-03-30T00:39:04.526Z,14.95
2018-03-30T00:39:16.694Z,14.95
2018-03-30T00:39:28.916Z,14.95
2018-03-30T00:39:41.382Z,14.95
2018-03-30T00:39:53.535Z,14.95
2018-03-30T00:40:05.777Z,14.95
2018-03-30T00:40:17.940Z,14.95
2018-03-30T00:40:30.110Z,15.87
2018-03-30T00:40:42.312Z,15.87
2018-03-30T00:40:54.471Z,15.87
2018-03-30T00:41:06.634Z,15.87
2018-03-30T00:41:18.834Z,15.87
2018-03-30T00:41:31.003Z,15.87
2018-03-30T00:41:43.183Z,15.87
2018-03-30T00:41:55.355Z,15.87
2018-03-30T00:42:07.542Z,15.87
2018-03-30T00:42:19.713Z,15.87
2018-03-30T00:42:31.891Z,16.19
2018-03-30T00:42:44.055Z,16.19
2018-03-30T00:42:56.212Z,16.19
2018-03-30T00:43:08.374Z,16.19
2018-03-30T00:43:20.586Z,16.19
2018-03-30T00:43:32.747Z,16.19
2018-03-30T00:43:44.894Z,16.19
2018-03-30T00:43:57.061Z,16.19
2018-03-30T00:44:09.225Z,16.19
2018-03-30T00:44:21.375Z,16.19
2018-03-30T00:44:33.573Z,16.23
2018-03-30T00:44:45.772Z,16.23
2018-03-30T00:44:57.954Z,16.23
2018-03-30T00:45:10.132Z,16.23
2018-03-30T00:45:22.282Z,16.23
2018-03-30T00:45:34.444Z,16.23
2018-03-30T00:45:46.596Z,16.23
2018-03-30T00:45:58.744Z,16.23
2018-03-30T00:46:10.898Z,16.23
2018-03-30T00:46:23.063Z,16.23
2018-03-30T00:46:35.228Z,16.75
2018-03-30T00:46:47.414Z,16.75
2018-03-30T00:46:59.604Z,16.75
2018-03-30T00:47:11.764Z,16.75
2018-03-30T00:47:23.910Z,16.75
2018-03-30T00:47:36.071Z,16.75
2018-03-30T00:47:48.213Z,16.75
2018-03-30T00:48:00.626Z,16.75
2018-03-30T00:48:12.751Z,16.75
2018-03-30T00:48:24.910Z,16.75
2018-03-30T00:48:37.120Z,16.68
2018-03-30T00:48:49.280Z,16.68
2018-03-30T00:49:01.595Z,16.68
2018-03-30T00:49:13.786Z,16.68
2018-03-30T00:49:25.993Z,16.68
2018-03-30T00:49:38.176Z,16.68
2018-03-30T00:49:50.310Z,16.68
2018-03-30T00:50:02.474Z,16.68
2018-03-30T00:50:14.645Z,16.68
2018-03-30T00:50:26.774Z,16.68
2018-03-30T00:50:38.927Z,15.78
2018-03-30T00:50:51.096Z,15.78
2018-03-30T00:51:03.247Z,15.78
2018-03-30T00:51:15.397Z,15.78
2018-03-30T00:51:27.533Z,15.78
2018-03-30T00:51:39.680Z,15.78
2018-03-30T00:51:51.812Z,15.78
2018-03-30T00:52:04.034Z,15.78
2018-03-30T00:52:16.195Z,15.78
2018-03-30T00:52:28.332Z,15.78
2018-03-30T00:52:40.505Z,14.95
2018-03-30T00:52:52.885Z,14.95
2018-03-30T00:53:05.026Z,14.95
2018-03-30T00:53:17.286Z,14.95
2018-03-30T00:53:29.416Z,14.95
2018-03-30T00:53:41.563Z,14.95
2018-03-30T00:53:53.774Z,14.95
2018-03-30T00:54:05.952Z,14.95
2018-03-30T00:54:18.114Z,14.95
2018-03-30T00:54:30.261Z,15.37
2018-03-30T00:54:42.401Z,15.37
2018-03-30T00:54:54.557Z,15.37
2018-03-30T00:55:06.864Z,15.37
2018-03-30T00:55:19.018Z,15.37
2018-03-30T00:55:31.162Z,15.37
2018-03-30T00:55:43.323Z,15.37
2018-03-30T00:55:55.485Z,15.37
2018-03-30T00:56:07.648Z,15.37
2018-03-30T00:56:19.801Z,15.37
2018-03-30T00:56:31.960Z,15.37
2018-03-30T00:56:44.106Z,15.37
2018-03-30T00:56:56.264Z,15.37
2018-03-30T00:57:08.422Z,15.37
2018-03-30T00:57:20.578Z,15.37
2018-03-30T00:57:32.975Z,15.37
2018-03-30T00:57:45.138Z,15.37
2018-03-30T00:57:57.284Z,15.37
2018-03-30T00:58:09.439Z,15.37
2018-03-30T00:58:21.770Z,15.37
2018-03-30T00:58:33.919Z,15.97
2018-03-30T00:58:46.072Z,15.97
2018-03-30T00:58:58.234Z,15.97
2018-03-30T00:59:10.425Z,15.97
2018-03-30T00:59:22.560Z,15.97
2018-03-30T00:59:34.732Z,15.97
2018-03-30T00:59:46.864Z,15.97
2018-03-30T00:59:59.019Z,15.97
2018-03-30T01:00:11.188Z,15.97
2018-03-30T01:00:23.353Z,15.97
2018-03-30T01:00:35.491Z,18.4
2018-03-30T01:00:47.671Z,18.4
2018-03-30T01:00:59.823Z,18.4
2018-03-30T01:01:11.975Z,18.4
2018-03-30T01:01:24.135Z,18.4
2018-03-30T01:01:36.274Z,18.4
2018-03-30T01:01:48.499Z,18.4
2018-03-30T01:02:00.649Z,18.4
2018-03-30T01:02:12.778Z,18.4
2018-03-30T01:02:24.953Z,18.4
2018-03-30T01:02:37.147Z,20.46
2018-03-30T01:02:49.336Z,20.46
2018-03-30T01:03:01.729Z,20.46
2018-03-30T01:03:13.864Z,20.46
2018-03-30T01:03:26.131Z,20.46
2018-03-30T01:03:38.264Z,20.46
2018-03-30T01:03:50.403Z,20.46
2018-03-30T01:04:02.551Z,20.46
2018-03-30T01:04:15.081Z,20.46
2018-03-30T01:04:27.253Z,20.46
2018-03-30T01:04:39.398Z,21.3
2018-03-30T01:04:51.896Z,21.3
2018-03-30T01:05:04.054Z,21.3
2018-03-30T01:05:16.229Z,21.3
2018-03-30T01:05:28.363Z,21.3
2018-03-30T01:05:40.505Z,21.3
2018-03-30T01:05:52.675Z,21.3
2018-03-30T01:06:04.840Z,21.3
2018-03-30T01:06:17.012Z,21.3
2018-03-30T01:06:29.169Z,21.3
2018-03-30T01:06:41.359Z,22.76
2018-03-30T01:06:53.527Z,22.76
2018-03-30T01:07:05.683Z,22.76
2018-03-30T01:07:17.879Z,22.76
2018-03-30T01:07:30.024Z,22.76
2018-03-30T01:07:42.205Z,22.76
2018-03-30T01:07:54.346Z,22.76
2018-03-30T01:08:06.484Z,22.76
2018-03-30T01:08:18.659Z,22.76
2018-03-30T01:08:30.821Z,22.76
2018-03-30T01:08:42.983Z,24.09
2018-03-30T01:08:55.541Z,24.09
2018-03-30T01:09:07.729Z,24.09
2018-03-30T01:09:19.872Z,24.09
2018-03-30T01:09:32.017Z,24.09
2018-03-30T01:09:44.160Z,24.09
2018-03-30T01:09:56.316Z,24.09
2018-03-30T01:10:08.436Z,24.09
2018-03-30T01:10:20.589Z,24.09
2018-03-30T01:10:32.725Z,24.09
2018-03-30T01:10:44.880Z,25.97
2018-03-30T01:10:57.059Z,25.97
2018-03-30T01:11:09.196Z,25.97
2018-03-30T01:11:21.370Z,25.97
2018-03-30T01:11:33.569Z,25.97
2018-03-30T01:11:45.723Z,25.97
2018-03-30T01:11:57.918Z,25.97
2018-03-30T01:12:10.067Z,25.97
2018-03-30T01:12:22.219Z,25.97
2018-03-30T01:12:34.366Z,25.82
2018-03-30T01:12:46.525Z,25.82
2018-03-30T01:12:58.746Z,25.82
2018-03-30T01:13:10.897Z,25.82
2018-03-30T01:13:23.057Z,25.82
2018-03-30T01:13:35.220Z,25.82
2018-03-30T01:13:47.362Z,25.82
2018-03-30T01:13:59.503Z,25.82
2018-03-30T01:14:11.679Z,25.82
2018-03-30T01:14:23.833Z,25.82
2018-03-30T01:14:36.028Z,24.92
2018-03-30T01:14:48.227Z,24.92
2018-03-30T01:15:00.361Z,24.92
2018-03-30T01:15:12.517Z,24.92
2018-03-30T01:15:24.664Z,24.92
2018-03-30T01:15:36.823Z,24.92
2018-03-30T01:15:49.030Z,24.92
2018-03-30T01:16:01.231Z,24.92
2018-03-30T01:16:13.387Z,24.92
2018-03-30T01:16:25.572Z,24.92
2018-03-30T01:16:37.741Z,24.97
2018-03-30T01:16:49.948Z,24.97
2018-03-30T01:17:02.102Z,24.97
2018-03-30T01:17:14.240Z,24.97
2018-03-30T01:17:26.402Z,24.97
2018-03-30T01:17:38.542Z,24.97
2018-03-30T01:17:50.697Z,24.97
2018-03-30T01:18:02.899Z,24.97
2018-03-30T01:18:15.066Z,24.97
2018-03-30T01:18:27.301Z,24.97
2018-03-30T01:18:39.454Z,24.97
2018-03-30T01:18:51.611Z,24.97
2018-03-30T01:19:03.759Z,24.97
2018-03-30T01:19:15.926Z,24.97
2018-03-30T01:19:28.095Z,24.97
2018-03-30T01:19:40.236Z,24.97
2018-03-30T01:19:52.410Z,24.97
2018-03-30T01:20:04.570Z,24.97
2018-03-30T01:20:16.733Z,24.97
2018-03-30T01:20:28.890Z,24.97
2018-03-30T01:20:41.043Z,24.63
2018-03-30T01:20:53.223Z,24.63
2018-03-30T01:21:05.385Z,24.63
2018-03-30T01:21:17.547Z,24.63
2018-03-30T01:21:29.696Z,24.63
2018-03-30T01:21:41.984Z,24.63
2018-03-30T01:21:54.153Z,24.63
2018-03-30T01:22:06.317Z,24.63
2018-03-30T01:22:18.524Z,24.63
2018-03-30T01:22:30.685Z,24.63
2018-03-30T01:22:42.862Z,25.96
2018-03-30T01:22:55.064Z,25.96
2018-03-30T01:23:07.491Z,25.96
2018-03-30T01:23:19.634Z,25.96
2018-03-30T01:23:31.814Z,25.96
2018-03-30T01:23:43.973Z,25.96
2018-03-30T01:23:56.201Z,25.96
2018-03-30T01:24:08.339Z,25.96
2018-03-30T01:24:20.499Z,25.96
2018-03-30T01:24:32.621Z,25.96
2018-03-30T01:24:44.755Z,28.38
2018-03-30T01:24:56.939Z,28.38
2018-03-30T01:25:09.085Z,28.38
2018-03-30T01:25:21.254Z,28.38
2018-03-30T01:25:33.422Z,28.38
2018-03-30T01:25:45.580Z,28.38
2018-03-30T01:25:57.751Z,28.38
2018-03-30T01:26:09.959Z,28.38
2018-03-30T01:26:22.098Z,28.38
2018-03-30T01:26:34.324Z,28.38
2018-03-30T01:26:46.460Z,28.25
2018-03-30T01:26:58.594Z,28.25
2018-03-30T01:27:10.796Z,28.25
2018-03-30T01:27:22.948Z,28.25
2018-03-30T01:27:35.137Z,28.25
2018-03-30T01:27:47.274Z,28.25
2018-03-30T01:27:59.402Z,28.25
2018-03-30T01:28:11.569Z,28.25
2018-03-30T01:28:23.758Z,28.25
2018-03-30T01:28:35.971Z,28.25
2018-03-30T01:28:48.120Z,28.09
2018-03-30T01:29:00.256Z,28.09
2018-03-30T01:29:12.413Z,28.09
2018-03-30T01:29:24.609Z,28.09
2018-03-30T01:29:36.765Z,28.09
2018-03-30T01:29:48.912Z,28.09
2018-03-30T01:30:01.076Z,28.09
2018-03-30T01:30:13.253Z,28.09
2018-03-30T01:30:25.456Z,28.09
2018-03-30T01:30:37.581Z,27.82
2018-03-30T01:30:49.739Z,27.82
2018-03-30T01:31:01.888Z,27.82
2018-03-30T01:31:14.070Z,27.82
2018-03-30T01:31:26.313Z,27.82
2018-03-30T01:31:38.502Z,27.82
2018-03-30T01:31:50.667Z,27.82
2018-03-30T01:32:02.866Z,27.82
2018-03-30T01:32:15.043Z,27.82
2018-03-30T01:32:27.229Z,27.82
2018-03-30T01:32:39.391Z,27.22
2018-03-30T01:32:51.570Z,27.22
2018-03-30T01:33:03.727Z,27.22
2018-03-30T01:33:15.886Z,27.22
2018-03-30T01:33:28.052Z,27.22
2018-03-30T01:33:40.205Z,27.22
2018-03-30T01:33:52.369Z,27.22
2018-03-30T01:34:04.518Z,27.22
2018-03-30T01:34:16.680Z,27.22
2018-03-30T01:34:28.996Z,27.22
2018-03-30T01:34:41.131Z,26.37
2018-03-30T01:34:53.260Z,26.37
2018-03-30T01:35:05.407Z,26.37
2018-03-30T01:35:17.540Z,26.37
2018-03-30T01:35:29.672Z,26.37
2018-03-30T01:35:41.813Z,26.37
2018-03-30T01:35:53.984Z,26.37
2018-03-30T01:36:06.171Z,26.37
2018-03-30T01:36:18.335Z,26.37
2018-03-30T01:36:30.476Z,26.37
2018-03-30T01:36:42.651Z,25.65
2018-03-30T01:36:54.789Z,25.65
2018-03-30T01:37:06.978Z,25.65
2018-03-30T01:37:19.140Z,25.65
2018-03-30T01:37:31.319Z,25.65
2018-03-30T01:37:43.504Z,25.65
2018-03-30T01:37:55.662Z,25.65
2018-03-30T01:38:07.809Z,25.65
2018-03-30T01:38:19.970Z,25.65
2018-03-30T01:38:32.129Z,25.65
2018-03-30T01:38:44.289Z,23.47
2018-03-30T01:38:56.455Z,23.47
2018-03-30T01:39:08.629Z,23.47
2018-03-30T01:39:20.769Z,23.47
2018-03-30T01:39:32.982Z,23.47
2018-03-30T01:39:45.143Z,23.47
2018-03-30T01:39:57.312Z,23.47
2018-03-30T01:40:09.470Z,23.47
2018-03-30T01:40:21.616Z,23.47
2018-03-30T01:40:33.768Z,23.47
2018-03-30T01:40:45.924Z,22.16
2018-03-30T01:40:58.098Z,22.16
2018-03-30T01:41:10.250Z,22.16
2018-03-30T01:41:22.407Z,22.16
2018-03-30T01:41:34.578Z,22.16
2018-03-30T01:41:46.744Z,22.16
2018-03-30T01:41:58.941Z,22.16
2018-03-30T01:42:11.092Z,22.16
2018-03-30T01:42:23.226Z,22.16
2018-03-30T01:42:35.417Z,22.16
2018-03-30T01:42:47.567Z,21.12
2018-03-30T01:42:59.705Z,21.12
2018-03-30T01:43:11.855Z,21.12
2018-03-30T01:43:24.009Z,21.12
2018-03-30T01:43:36.184Z,21.12
2018-03-30T01:43:48.341Z,21.12
2018-03-30T01:44:00.485Z,21.12
2018-03-30T01:44:12.632Z,21.12
2018-03-30T01:44:24.775Z,21.12
2018-03-30T01:44:37.276Z,21.12
2018-03-30T01:44:49.436Z,20.63
2018-03-30T01:45:01.591Z,20.63
2018-03-30T01:45:13.786Z,20.63
2018-03-30T01:45:26.013Z,20.63
2018-03-30T01:45:38.153Z,20.63
2018-03-30T01:45:50.299Z,20.63
2018-03-30T01:46:02.492Z,20.63
2018-03-30T01:46:14.634Z,20.63
2018-03-30T01:46:26.792Z,20.63
2018-03-30T01:46:38.948Z,20.63
2018-03-30T01:46:51.110Z,18.2
2018-03-30T01:47:03.266Z,18.2
2018-03-30T01:47:15.415Z,18.2
2018-03-30T01:47:27.550Z,18.2
2018-03-30T01:47:39.701Z,18.2
2018-03-30T01:47:51.861Z,18.2
2018-03-30T01:48:04.191Z,18.2
2018-03-30T01:48:16.338Z,18.2
2018-03-30T01:48:28.530Z,18.2
2018-03-30T01:48:40.708Z,19.88
2018-03-30T01:48:52.892Z,19.88
2018-03-30T01:49:05.231Z,19.88
2018-03-30T01:49:17.404Z,19.88
2018-03-30T01:49:29.570Z,19.88
2018-03-30T01:49:41.771Z,19.88
2018-03-30T01:49:53.940Z,19.88
2018-03-30T01:50:06.133Z,19.88
2018-03-30T01:50:18.289Z,19.88
2018-03-30T01:50:30.435Z,19.88
2018-03-30T01:50:42.605Z,20.01
2018-03-30T01:50:54.776Z,20.01
2018-03-30T01:51:06.949Z,20.01
2018-03-30T01:51:19.098Z,20.01
2018-03-30T01:51:31.243Z,20.01
2018-03-30T01:51:43.372Z,20.01
2018-03-30T01:51:55.552Z,20.01
2018-03-30T01:52:07.713Z,20.01
2018-03-30T01:52:19.918Z,20.01
2018-03-30T01:52:32.137Z,20.01
2018-03-30T01:52:44.292Z,20.88
2018-03-30T01:52:56.417Z,20.88
2018-03-30T01:53:08.612Z,20.88
2018-03-30T01:53:20.894Z,20.88
2018-03-30T01:53:33.055Z,20.88
2018-03-30T01:53:45.236Z,20.88
2018-03-30T01:53:57.410Z,20.88
2018-03-30T01:54:09.571Z,20.88
2018-03-30T01:54:21.741Z,20.88
2018-03-30T01:54:33.882Z,20.88
2018-03-30T01:54:46.053Z,19.88
2018-03-30T01:54:58.225Z,19.88
2018-03-30T01:55:10.766Z,19.88
2018-03-30T01:55:22.920Z,19.88
2018-03-30T01:55:35.134Z,19.88
2018-03-30T01:55:47.275Z,19.88
2018-03-30T01:55:59.409Z,19.88
2018-03-30T01:56:11.557Z,19.88
2018-03-30T01:56:23.716Z,19.88
2018-03-30T01:56:35.838Z,19.88
2018-03-30T01:56:48.038Z,21.2
2018-03-30T01:57:00.189Z,21.2
2018-03-30T01:57:12.328Z,21.2
2018-03-30T01:57:24.450Z,21.2
2018-03-30T01:57:36.652Z,21.2
2018-03-30T01:57:48.808Z,21.2
2018-03-30T01:58:00.980Z,21.2
2018-03-30T01:58:13.149Z,21.2
2018-03-30T01:58:25.354Z,21.2
2018-03-30T01:58:37.499Z,21.2
2018-03-30T01:58:49.647Z,24.36
2018-03-30T01:59:01.850Z,24.36
2018-03-30T01:59:14.309Z,24.36
2018-03-30T01:59:26.472Z,24.36
2018-03-30T01:59:38.616Z,24.36
2018-03-30T01:59:50.768Z,24.36
2018-03-30T02:00:02.919Z,24.36
2018-03-30T02:00:15.082Z,24.36
2018-03-30T02:00:27.268Z,24.36
2018-03-30T02:00:39.426Z,24.36
2018-03-30T02:00:51.667Z,26.02
2018-03-30T02:01:04.418Z,26.02
2018-03-30T02:01:16.622Z,26.02
2018-03-30T02:01:28.816Z,26.02
2018-03-30T02:01:41.039Z,26.02
2018-03-30T02:01:53.190Z,26.02
2018-03-30T02:02:05.362Z,26.02
2018-03-30T02:02:17.516Z,26.02
2018-03-30T02:02:29.734Z,26.02
2018-03-30T02:02:41.884Z,26.02
2018-03-30T02:02:54.009Z,26.02
2018-03-30T02:03:06.192Z,26.02
2018-03-30T02:03:18.328Z,26.02
2018-03-30T02:03:30.486Z,26.02
2018-03-30T02:03:42.649Z,26.02
2018-03-30T02:03:54.826Z,26.02
2018-03-30T02:04:07.099Z,26.02
2018-03-30T02:04:19.257Z,26.02
2018-03-30T02:04:31.476Z,26.02
2018-03-30T02:04:43.727Z,25.34
2018-03-30T02:04:56.003Z,25.34
2018-03-30T02:05:08.159Z,25.34
2018-03-30T02:05:20.323Z,25.34
2018-03-30T02:05:32.484Z,25.34
2018-03-30T02:05:44.626Z,25.34
2018-03-30T02:05:56.789Z,25.34
2018-03-30T02:06:08.949Z,25.34
2018-03-30T02:06:21.100Z,25.34
2018-03-30T02:06:33.248Z,25.34
2018-03-30T02:06:45.380Z,21.88
2018-03-30T02:06:57.511Z,21.88
2018-03-30T02:07:09.739Z,21.88
2018-03-30T02:07:21.896Z,21.88
2018-03-30T02:07:34.100Z,21.88
2018-03-30T02:07:46.273Z,21.88
2018-03-30T02:07:58.445Z,21.88
2018-03-30T02:08:10.593Z,21.88
2018-03-30T02:08:22.751Z,21.88
2018-03-30T02:08:34.921Z,21.88
2018-03-30T02:08:47.318Z,22.7
2018-03-30T02:08:59.513Z,22.7
2018-03-30T02:09:11.665Z,22.7
2018-03-30T02:09:23.791Z,22.7
2018-03-30T02:09:35.935Z,22.7
2018-03-30T02:09:48.099Z,22.7
2018-03-30T02:10:00.255Z,22.7
2018-03-30T02:10:12.383Z,22.7
2018-03-30T02:10:24.553Z,22.7
2018-03-30T02:10:36.707Z,22.7
2018-03-30T02:10:48.871Z,25.32
2018-03-30T02:11:01.032Z,25.32
2018-03-30T02:11:13.190Z,25.32
2018-03-30T02:11:25.352Z,25.32
2018-03-30T02:11:37.500Z,25.32
2018-03-30T02:11:49.644Z,25.32
2018-03-30T02:12:01.805Z,25.32
2018-03-30T02:12:13.970Z,25.32
2018-03-30T02:12:26.123Z,25.32
2018-03-30T02:12:38.286Z,25.32
2018-03-30T02:12:50.426Z,24.87
2018-03-30T02:13:02.690Z,24.87
2018-03-30T02:13:14.847Z,24.87
2018-03-30T02:13:27.004Z,24.87
2018-03-30T02:13:39.143Z,24.87
2018-03-30T02:13:51.340Z,24.87
2018-03-30T02:14:03.510Z,24.87
2018-03-30T02:14:15.661Z,24.87
2018-03-30T02:14:27.947Z,24.87
2018-03-30T02:14:40.147Z,24.87
2018-03-30T02:14:52.441Z,24.25
2018-03-30T02:15:04.605Z,24.25
2018-03-30T02:15:16.755Z,24.25
2018-03-30T02:15:28.901Z,24.25
2018-03-30T02:15:41.034Z,24.25
2018-03-30T02:15:53.272Z,24.25
2018-03-30T02:16:05.838Z,24.25
2018-03-30T02:16:18.036Z,24.25
2018-03-30T02:16:30.199Z,24.25
2018-03-30T02:16:42.337Z,24.25
2018-03-30T02:16:54.482Z,26.02
2018-03-30T02:17:06.647Z,26.02
2018-03-30T02:17:18.814Z,26.02
2018-03-30T02:17:30.974Z,26.02
2018-03-30T02:17:43.144Z,26.02
2018-03-30T02:17:55.296Z,26.02
2018-03-30T02:18:07.475Z,26.02
2018-03-30T02:18:19.687Z,26.02
2018-03-30T02:18:31.860Z,26.02
2018-03-30T02:18:44.047Z,26.02
2018-03-30T02:18:56.218Z,27
2018-03-30T02:19:08.364Z,27
2018-03-30T02:19:20.533Z,27
2018-03-30T02:19:32.677Z,27
2018-03-30T02:19:44.821Z,27
2018-03-30T02:19:56.967Z,27
2018-03-30T02:20:09.116Z,27
2018-03-30T02:20:21.287Z,27
2018-03-30T02:20:33.462Z,27
2018-03-30T02:20:45.616Z,27
2018-03-30T02:20:57.771Z,26.21
2018-03-30T02:21:09.921Z,26.21
2018-03-30T02:21:22.076Z,26.21
2018-03-30T02:21:34.233Z,26.21
2018-03-30T02:21:46.363Z,26.21
2018-03-30T02:21:58.541Z,26.21
2018-03-30T02:22:10.736Z,26.21
2018-03-30T02:22:22.884Z,26.21
2018-03-30T02:22:35.051Z,26.21
2018-03-30T02:22:47.233Z,25.71
2018-03-30T02:22:59.483Z,25.71
2018-03-30T02:23:11.632Z,25.71
2018-03-30T02:23:23.788Z,25.71
2018-03-30T02:23:35.935Z,25.71
2018-03-30T02:23:48.097Z,25.71
2018-03-30T02:24:00.246Z,25.71
2018-03-30T02:24:12.498Z,25.71
2018-03-30T02:24:24.624Z,25.71
2018-03-30T02:24:36.977Z,25.71
2018-03-30T02:24:49.167Z,25.71
2018-03-30T02:25:01.330Z,25.71
2018-03-30T02:25:13.525Z,25.71
2018-03-30T02:25:25.682Z,25.71
2018-03-30T02:25:37.855Z,25.71
2018-03-30T02:25:50.042Z,25.71
2018-03-30T02:26:02.203Z,25.71
2018-03-30T02:26:14.356Z,25.71
2018-03-30T02:26:26.589Z,25.71
2018-03-30T02:26:38.916Z,25.71
2018-03-30T02:26:51.046Z,25.4
2018-03-30T02:27:03.205Z,25.4
2018-03-30T02:27:15.374Z,25.4
2018-03-30T02:27:27.529Z,25.4
2018-03-30T02:27:39.695Z,25.4
2018-03-30T02:27:51.865Z,25.4
2018-03-30T02:28:04.024Z,25.4
2018-03-30T02:28:16.176Z,25.4
2018-03-30T02:28:28.319Z,25.4
2018-03-30T02:28:40.473Z,25.4
2018-03-30T02:28:52.626Z,28.12
2018-03-30T02:29:04.777Z,28.12
2018-03-30T02:29:16.917Z,28.12
2018-03-30T02:29:29.148Z,28.12
2018-03-30T02:29:41.286Z,28.12
2018-03-30T02:29:53.503Z,28.12
2018-03-30T02:30:05.678Z,28.12
2018-03-30T02:30:17.888Z,28.12
2018-03-30T02:30:30.175Z,28.12
2018-03-30T02:30:42.386Z,28.12
2018-03-30T02:30:54.555Z,29.98
2018-03-30T02:31:06.764Z,29.98
2018-03-30T02:31:19.012Z,29.98
2018-03-30T02:31:31.201Z,29.98
2018-03-30T02:31:43.718Z,29.98
2018-03-30T02:31:55.932Z,29.98
2018-03-30T02:32:08.143Z,29.98
2018-03-30T02:32:20.352Z,29.98
2018-03-30T02:32:32.505Z,29.98
2018-03-30T02:32:44.703Z,29.98
2018-03-30T02:32:56.935Z,29.45
2018-03-30T02:33:09.171Z,29.45
2018-03-30T02:33:21.374Z,29.45
2018-03-30T02:33:33.597Z,29.45
2018-03-30T02:33:45.792Z,29.45
2018-03-30T02:33:58.040Z,29.45
2018-03-30T02:34:10.229Z,29.45
2018-03-30T02:34:22.445Z,29.45
2018-03-30T02:34:34.624Z,29.45
2018-03-30T02:34:46.878Z,29.45
2018-03-30T02:34:59.053Z,29.71
2018-03-30T02:35:11.276Z,29.71
2018-03-30T02:35:23.444Z,29.71
2018-03-30T02:35:35.653Z,29.71
2018-03-30T02:35:47.858Z,29.71
2018-03-30T02:36:00.026Z,29.71
2018-03-30T02:36:12.235Z,29.71
2018-03-30T02:36:24.434Z,29.71
2018-03-30T02:36:36.656Z,29.71
2018-03-30T02:36:48.853Z,29.77
2018-03-30T02:37:01.067Z,29.77
2018-03-30T02:37:13.268Z,29.77
2018-03-30T02:37:25.486Z,29.77
2018-03-30T02:37:37.675Z,29.77